<?xml version="1.0" encoding="UTF-8" standalone="no" ?>
<gpx xmlns="http://www.topografix.com/GPX/1/1" xmlns:xsi="http://www.w3.org/2001/XMLSchema-instance" xsi:schemaLocation="http://www.topografix.com/GPX/1/1 http://www.topografix.com/GPX/1/1/gpx.xsd" version="1.1" creator="VisuGPX - https://www.visugpx.com">
  <metadata>
    <name>BLEU - raid de l'Avy 2022_ 22km</name>
  </metadata>
  <trk>
    <name><![CDATA[BLEU - raid de l'Avy 2022_ 22km]]></name>
    <extensions>
      <line xmlns="http://www.topografix.com/GPX/gpx_style/0/2">
        <color>0000FF</color>
        <width>4</width>
      </line>
    </extensions>
    <trkseg>
      <trkpt lat="43.62512" lon="3.83466">
        <ele>75.4</ele>
      </trkpt>
      <trkpt lat="43.6256" lon="3.83266">
        <ele>78.1</ele>
      </trkpt>
      <trkpt lat="43.62715" lon="3.83138">
        <ele>84.8</ele>
      </trkpt>
      <trkpt lat="43.62834" lon="3.83101">
        <ele>84.6</ele>
      </trkpt>
      <trkpt lat="43.62833" lon="3.82941">
        <ele>71.8</ele>
      </trkpt>
      <trkpt lat="43.62954" lon="3.82968">
        <ele>76.9</ele>
      </trkpt>
      <trkpt lat="43.63023" lon="3.82941">
        <ele>77.1</ele>
      </trkpt>
      <trkpt lat="43.63062" lon="3.82998">
        <ele>80.5</ele>
      </trkpt>
      <trkpt lat="43.63087" lon="3.82973">
        <ele>78.9</ele>
      </trkpt>
      <trkpt lat="43.63172" lon="3.82972">
        <ele>75.2</ele>
      </trkpt>
      <trkpt lat="43.63206" lon="3.82951">
        <ele>76.9</ele>
      </trkpt>
      <trkpt lat="43.63188" lon="3.82863">
        <ele>79.5</ele>
      </trkpt>
      <trkpt lat="43.63285" lon="3.82721">
        <ele>85.2</ele>
      </trkpt>
      <trkpt lat="43.63563" lon="3.82521">
        <ele>90.1</ele>
      </trkpt>
      <trkpt lat="43.63622" lon="3.82768">
        <ele>79</ele>
      </trkpt>
      <trkpt lat="43.63865" lon="3.8272">
        <ele>81.4</ele>
      </trkpt>
      <trkpt lat="43.63912" lon="3.82833">
        <ele>78</ele>
      </trkpt>
      <trkpt lat="43.64" lon="3.82787">
        <ele>83</ele>
      </trkpt>
      <trkpt lat="43.64028" lon="3.82754">
        <ele>84.7</ele>
      </trkpt>
      <trkpt lat="43.64057" lon="3.82684">
        <ele>88.4</ele>
      </trkpt>
      <trkpt lat="43.6408" lon="3.82612">
        <ele>92.7</ele>
      </trkpt>
      <trkpt lat="43.64183" lon="3.82328">
        <ele>102.5</ele>
      </trkpt>
      <trkpt lat="43.64225" lon="3.82301">
        <ele>102</ele>
      </trkpt>
      <trkpt lat="43.64282" lon="3.8232">
        <ele>98.3</ele>
      </trkpt>
      <trkpt lat="43.64344" lon="3.82271">
        <ele>98.8</ele>
      </trkpt>
      <trkpt lat="43.64358" lon="3.82237">
        <ele>98.7</ele>
      </trkpt>
      <trkpt lat="43.64358" lon="3.82196">
        <ele>100</ele>
      </trkpt>
      <trkpt lat="43.64349" lon="3.82141">
        <ele>101.3</ele>
        <time>2022-06-02T12:53:26.956Z</time>
      </trkpt>
      <trkpt lat="43.64351" lon="3.82125">
        <ele>101.6</ele>
        <time>2022-06-02T12:53:32.210Z</time>
      </trkpt>
      <trkpt lat="43.64345" lon="3.82117">
        <ele>102.5</ele>
        <time>2022-06-02T12:53:40.262Z</time>
      </trkpt>
      <trkpt lat="43.64339" lon="3.8211">
        <ele>103.5</ele>
        <time>2022-06-02T12:53:49.800Z</time>
      </trkpt>
      <trkpt lat="43.6434" lon="3.82099">
        <ele>104.2</ele>
        <time>2022-06-02T12:53:56.158Z</time>
      </trkpt>
      <trkpt lat="43.64341" lon="3.82089">
        <ele>104.8</ele>
        <time>2022-06-02T12:54:01.701Z</time>
      </trkpt>
      <trkpt lat="43.64355" lon="3.82058">
        <ele>106.7</ele>
        <time>2022-06-02T12:54:20.190Z</time>
      </trkpt>
      <trkpt lat="43.64369" lon="3.82028">
        <ele>107.8</ele>
        <time>2022-06-02T12:54:34.699Z</time>
      </trkpt>
      <trkpt lat="43.64376" lon="3.82014">
        <ele>107.9</ele>
        <time>2022-06-02T12:54:39.257Z</time>
      </trkpt>
      <trkpt lat="43.64383" lon="3.82">
        <ele>108.4</ele>
        <time>2022-06-02T12:54:45.974Z</time>
      </trkpt>
      <trkpt lat="43.6439" lon="3.81979">
        <ele>109.3</ele>
        <time>2022-06-02T12:54:56.253Z</time>
      </trkpt>
      <trkpt lat="43.64398" lon="3.81959">
        <ele>110.3</ele>
        <time>2022-06-02T12:55:06.889Z</time>
      </trkpt>
      <trkpt lat="43.64406" lon="3.81939">
        <ele>111.6</ele>
        <time>2022-06-02T12:55:19.081Z</time>
      </trkpt>
      <trkpt lat="43.64415" lon="3.81919">
        <ele>112.8</ele>
        <time>2022-06-02T12:55:30.867Z</time>
      </trkpt>
      <trkpt lat="43.64414" lon="3.81873">
        <ele>115.1</ele>
        <time>2022-06-02T12:55:53.665Z</time>
      </trkpt>
      <trkpt lat="43.64413" lon="3.81828">
        <ele>116.4</ele>
        <time>2022-06-02T12:56:11.256Z</time>
      </trkpt>
      <trkpt lat="43.64417" lon="3.81819">
        <ele>117</ele>
        <time>2022-06-02T12:56:16.887Z</time>
      </trkpt>
      <trkpt lat="43.64422" lon="3.8181">
        <ele>117.5</ele>
        <time>2022-06-02T12:56:22.183Z</time>
      </trkpt>
      <trkpt lat="43.64399" lon="3.81762">
        <ele>119</ele>
        <time>2022-06-02T12:56:43.480Z</time>
      </trkpt>
      <trkpt lat="43.64375" lon="3.81713">
        <ele>119.3</ele>
        <time>2022-06-02T12:56:59.155Z</time>
      </trkpt>
      <trkpt lat="43.64376" lon="3.81713">
        <ele>119.3</ele>
        <time>2022-06-02T12:56:59.498Z</time>
      </trkpt>
      <trkpt lat="43.64366" lon="3.8168">
        <ele>120</ele>
        <time>2022-06-02T12:57:11.288Z</time>
      </trkpt>
      <trkpt lat="43.64344" lon="3.81624">
        <ele>121.2</ele>
        <time>2022-06-02T12:57:32.030Z</time>
      </trkpt>
      <trkpt lat="43.64331" lon="3.81582">
        <ele>122.8</ele>
        <time>2022-06-02T12:57:51.628Z</time>
      </trkpt>
      <trkpt lat="43.64324" lon="3.81552">
        <ele>122.4</ele>
        <time>2022-06-02T12:57:55.823Z</time>
      </trkpt>
      <trkpt lat="43.64299" lon="3.81455">
        <ele>121.6</ele>
        <time>2022-06-02T12:58:10.754Z</time>
      </trkpt>
      <trkpt lat="43.64287" lon="3.81413">
        <ele>118.4</ele>
        <time>2022-06-02T12:58:14.871Z</time>
      </trkpt>
      <trkpt lat="43.64268" lon="3.81365">
        <ele>117.5</ele>
        <time>2022-06-02T12:58:21.723Z</time>
      </trkpt>
      <trkpt lat="43.64253" lon="3.81333">
        <ele>117.5</ele>
        <time>2022-06-02T12:58:31.176Z</time>
      </trkpt>
      <trkpt lat="43.64232" lon="3.81301">
        <ele>116.7</ele>
        <time>2022-06-02T12:58:36.416Z</time>
      </trkpt>
      <trkpt lat="43.64205" lon="3.81253">
        <ele>116.1</ele>
        <time>2022-06-02T12:58:44.907Z</time>
      </trkpt>
      <trkpt lat="43.64204" lon="3.81252">
        <ele>116.3</ele>
        <time>2022-06-02T12:58:46.539Z</time>
      </trkpt>
      <trkpt lat="43.64247" lon="3.81212">
        <ele>106.9</ele>
        <time>2022-06-02T12:58:53.070Z</time>
      </trkpt>
      <trkpt lat="43.64245" lon="3.81189">
        <ele>105.4</ele>
        <time>2022-06-02T12:58:55.182Z</time>
      </trkpt>
      <trkpt lat="43.64243" lon="3.81166">
        <ele>102.4</ele>
        <time>2022-06-02T12:58:57.295Z</time>
      </trkpt>
      <trkpt lat="43.64237" lon="3.81146">
        <ele>98.5</ele>
        <time>2022-06-02T12:58:59.269Z</time>
      </trkpt>
      <trkpt lat="43.64231" lon="3.81126">
        <ele>94.8</ele>
        <time>2022-06-02T12:59:01.243Z</time>
      </trkpt>
      <trkpt lat="43.64212" lon="3.81102">
        <ele>93.4</ele>
        <time>2022-06-02T12:59:04.520Z</time>
      </trkpt>
      <trkpt lat="43.64193" lon="3.81078">
        <ele>92.7</ele>
        <time>2022-06-02T12:59:08.760Z</time>
      </trkpt>
      <trkpt lat="43.64181" lon="3.81066">
        <ele>93.2</ele>
        <time>2022-06-02T12:59:16.106Z</time>
      </trkpt>
      <trkpt lat="43.64169" lon="3.81054">
        <ele>93.7</ele>
        <time>2022-06-02T12:59:23.452Z</time>
      </trkpt>
      <trkpt lat="43.64154" lon="3.81017">
        <ele>97.5</ele>
        <time>2022-06-02T12:59:59.059Z</time>
      </trkpt>
      <trkpt lat="43.64139" lon="3.80981">
        <ele>101</ele>
        <time>2022-06-02T13:00:30.946Z</time>
      </trkpt>
      <trkpt lat="43.64163" lon="3.80942">
        <ele>103.9</ele>
        <time>2022-06-02T13:00:58.188Z</time>
      </trkpt>
      <trkpt lat="43.64186" lon="3.80904">
        <ele>103.2</ele>
        <time>2022-06-02T13:01:04.626Z</time>
      </trkpt>
      <trkpt lat="43.64181" lon="3.80884">
        <ele>103.1</ele>
        <time>2022-06-02T13:01:09.395Z</time>
      </trkpt>
      <trkpt lat="43.64176" lon="3.80864">
        <ele>100.5</ele>
        <time>2022-06-02T13:01:11.325Z</time>
      </trkpt>
      <trkpt lat="43.64173" lon="3.80839">
        <ele>97.6</ele>
        <time>2022-06-02T13:01:13.636Z</time>
      </trkpt>
      <trkpt lat="43.6417" lon="3.80815">
        <ele>97.1</ele>
        <time>2022-06-02T13:01:16.502Z</time>
      </trkpt>
      <trkpt lat="43.64167" lon="3.80781">
        <ele>95.3</ele>
        <time>2022-06-02T13:01:19.626Z</time>
      </trkpt>
      <trkpt lat="43.64163" lon="3.80747">
        <ele>90.7</ele>
        <time>2022-06-02T13:01:22.767Z</time>
      </trkpt>
      <trkpt lat="43.64159" lon="3.80702">
        <ele>84.6</ele>
        <time>2022-06-02T13:01:26.901Z</time>
      </trkpt>
      <trkpt lat="43.64155" lon="3.80657">
        <ele>80.1</ele>
        <time>2022-06-02T13:01:31.035Z</time>
      </trkpt>
      <trkpt lat="43.64153" lon="3.80646">
        <ele>79.8</ele>
        <time>2022-06-02T13:01:32.263Z</time>
      </trkpt>
      <trkpt lat="43.6415" lon="3.80636">
        <ele>79.8</ele>
        <time>2022-06-02T13:01:34.947Z</time>
      </trkpt>
      <trkpt lat="43.64136" lon="3.80622">
        <ele>80.9</ele>
        <time>2022-06-02T13:01:46.316Z</time>
      </trkpt>
      <trkpt lat="43.64122" lon="3.80608">
        <ele>79.2</ele>
        <time>2022-06-02T13:01:48.494Z</time>
      </trkpt>
      <trkpt lat="43.6412" lon="3.80605">
        <ele>78.7</ele>
        <time>2022-06-02T13:01:48.866Z</time>
      </trkpt>
      <trkpt lat="43.64118" lon="3.80602">
        <ele>78.2</ele>
        <time>2022-06-02T13:01:49.238Z</time>
      </trkpt>
      <trkpt lat="43.64118" lon="3.806">
        <ele>78.1</ele>
        <time>2022-06-02T13:01:49.420Z</time>
      </trkpt>
      <trkpt lat="43.64113" lon="3.80591">
        <ele>76.7</ele>
        <time>2022-06-02T13:01:50.455Z</time>
      </trkpt>
      <trkpt lat="43.64108" lon="3.80593">
        <ele>75.7</ele>
        <time>2022-06-02T13:01:51.111Z</time>
      </trkpt>
      <trkpt lat="43.64103" lon="3.80596">
        <ele>74.7</ele>
        <time>2022-06-02T13:01:51.797Z</time>
      </trkpt>
      <trkpt lat="43.64101" lon="3.80603">
        <ele>74.4</ele>
        <time>2022-06-02T13:01:52.487Z</time>
      </trkpt>
      <trkpt lat="43.64099" lon="3.80611">
        <ele>73.9</ele>
        <time>2022-06-02T13:01:53.258Z</time>
      </trkpt>
      <trkpt lat="43.64092" lon="3.80618">
        <ele>71.9</ele>
        <time>2022-06-02T13:01:54.347Z</time>
      </trkpt>
      <trkpt lat="43.64085" lon="3.80626">
        <ele>69.9</ele>
        <time>2022-06-02T13:01:55.492Z</time>
      </trkpt>
      <trkpt lat="43.64077" lon="3.80632">
        <ele>68.5</ele>
        <time>2022-06-02T13:01:56.639Z</time>
      </trkpt>
      <trkpt lat="43.6407" lon="3.80639">
        <ele>67.6</ele>
        <time>2022-06-02T13:01:57.728Z</time>
      </trkpt>
      <trkpt lat="43.64061" lon="3.80632">
        <ele>66.6</ele>
        <time>2022-06-02T13:01:59.029Z</time>
      </trkpt>
      <trkpt lat="43.64052" lon="3.80625">
        <ele>65.6</ele>
        <time>2022-06-02T13:02:00.330Z</time>
      </trkpt>
      <trkpt lat="43.64007" lon="3.80639">
        <ele>60.5</ele>
        <time>2022-06-02T13:02:06.142Z</time>
      </trkpt>
      <trkpt lat="43.63963" lon="3.80654">
        <ele>55.9</ele>
        <time>2022-06-02T13:02:11.853Z</time>
      </trkpt>
      <trkpt lat="43.63937" lon="3.80658">
        <ele>53.4</ele>
        <time>2022-06-02T13:02:15.149Z</time>
      </trkpt>
      <trkpt lat="43.63913" lon="3.80657">
        <ele>50.7</ele>
        <time>2022-06-02T13:02:18.437Z</time>
      </trkpt>
      <trkpt lat="43.63909" lon="3.80642">
        <ele>50.4</ele>
        <time>2022-06-02T13:02:21.586Z</time>
      </trkpt>
      <trkpt lat="43.63906" lon="3.80611">
        <ele>50.8</ele>
        <time>2022-06-02T13:02:27.058Z</time>
      </trkpt>
      <trkpt lat="43.63907" lon="3.80521">
        <ele>53.4</ele>
      </trkpt>
      <trkpt lat="43.63818" lon="3.80376">
        <ele>50.6</ele>
      </trkpt>
      <trkpt lat="43.63764" lon="3.80214">
        <ele>49.8</ele>
      </trkpt>
      <trkpt lat="43.63866" lon="3.80111">
        <ele>50.4</ele>
      </trkpt>
      <trkpt lat="43.6415" lon="3.79923">
        <ele>52.2</ele>
      </trkpt>
      <trkpt lat="43.64216" lon="3.799">
        <ele>53.2</ele>
      </trkpt>
      <trkpt lat="43.64215" lon="3.79874">
        <ele>52.4</ele>
      </trkpt>
      <trkpt lat="43.64368" lon="3.79788">
        <ele>53</ele>
      </trkpt>
      <trkpt lat="43.64421" lon="3.79792">
        <ele>53.6</ele>
        <time>2022-06-02T13:39:09.025Z</time>
      </trkpt>
      <trkpt lat="43.64452" lon="3.79787">
        <ele>54.1</ele>
        <time>2022-06-02T13:39:17.572Z</time>
      </trkpt>
      <trkpt lat="43.64473" lon="3.79782">
        <ele>55</ele>
        <time>2022-06-02T13:39:17.994Z</time>
      </trkpt>
      <trkpt lat="43.6451" lon="3.79703">
        <ele>53</ele>
        <time>2022-06-02T13:39:18.530Z</time>
      </trkpt>
      <trkpt lat="43.64569" lon="3.79556">
        <ele>53.5</ele>
        <time>2022-06-02T13:39:23.351Z</time>
      </trkpt>
      <trkpt lat="43.64603" lon="3.7947">
        <ele>53.7</ele>
        <time>2022-06-02T13:39:34.715Z</time>
      </trkpt>
      <trkpt lat="43.64589" lon="3.79454">
        <ele>54.6</ele>
        <time>2022-06-02T13:39:37.364Z</time>
      </trkpt>
      <trkpt lat="43.64591" lon="3.7945">
        <ele>54.8</ele>
        <time>2022-06-02T13:39:39.570Z</time>
      </trkpt>
      <trkpt lat="43.64591" lon="3.79447">
        <ele>55</ele>
        <time>2022-06-02T13:39:41.367Z</time>
      </trkpt>
      <trkpt lat="43.64618" lon="3.79411">
        <ele>54.6</ele>
        <time>2022-06-02T13:39:48.892Z</time>
      </trkpt>
      <trkpt lat="43.64637" lon="3.79389">
        <ele>54.3</ele>
        <time>2022-06-02T13:39:53.771Z</time>
      </trkpt>
      <trkpt lat="43.6464" lon="3.79373">
        <ele>54.5</ele>
        <time>2022-06-02T13:39:58.610Z</time>
      </trkpt>
      <trkpt lat="43.64652" lon="3.79337">
        <ele>54.9</ele>
        <time>2022-06-02T13:40:09.875Z</time>
      </trkpt>
      <trkpt lat="43.64657" lon="3.79312">
        <ele>55.2</ele>
        <time>2022-06-02T13:40:17.408Z</time>
      </trkpt>
      <trkpt lat="43.64667" lon="3.79296">
        <ele>54.7</ele>
        <time>2022-06-02T13:40:19.787Z</time>
      </trkpt>
      <trkpt lat="43.64679" lon="3.79288">
        <ele>55.1</ele>
        <time>2022-06-02T13:40:26.083Z</time>
      </trkpt>
      <trkpt lat="43.6469" lon="3.79275">
        <ele>55.3</ele>
        <time>2022-06-02T13:40:31.760Z</time>
      </trkpt>
      <trkpt lat="43.64755" lon="3.79182">
        <ele>58.4</ele>
        <time>2022-06-02T13:41:17.782Z</time>
      </trkpt>
      <trkpt lat="43.64769" lon="3.79168">
        <ele>58.8</ele>
        <time>2022-06-02T13:41:25.296Z</time>
      </trkpt>
      <trkpt lat="43.64789" lon="3.79156">
        <ele>57.9</ele>
        <time>2022-06-02T13:41:28.412Z</time>
      </trkpt>
      <trkpt lat="43.64818" lon="3.79122">
        <ele>57.6</ele>
        <time>2022-06-02T13:41:36.329Z</time>
      </trkpt>
      <trkpt lat="43.64837" lon="3.79095">
        <ele>57.8</ele>
        <time>2022-06-02T13:41:46.339Z</time>
      </trkpt>
      <trkpt lat="43.64883" lon="3.7905">
        <ele>58</ele>
        <time>2022-06-02T13:42:06.296Z</time>
      </trkpt>
      <trkpt lat="43.64907" lon="3.79037">
        <ele>57.6</ele>
        <time>2022-06-02T13:42:11.156Z</time>
      </trkpt>
      <trkpt lat="43.64924" lon="3.79024">
        <ele>57.8</ele>
        <time>2022-06-02T13:42:18.505Z</time>
      </trkpt>
      <trkpt lat="43.64958" lon="3.78993">
        <ele>59.4</ele>
        <time>2022-06-02T13:42:40.303Z</time>
      </trkpt>
      <trkpt lat="43.64977" lon="3.7899">
        <ele>58.6</ele>
        <time>2022-06-02T13:42:43.023Z</time>
      </trkpt>
      <trkpt lat="43.65054" lon="3.78938">
        <ele>58.3</ele>
        <time>2022-06-02T11:37:20.000Z</time>
      </trkpt>
      <trkpt lat="43.65065" lon="3.78936">
        <ele>57.7</ele>
        <time>2022-06-02T11:37:21.416Z</time>
      </trkpt>
      <trkpt lat="43.65075" lon="3.78934">
        <ele>57.2</ele>
        <time>2022-06-02T11:37:22.757Z</time>
      </trkpt>
      <trkpt lat="43.65111" lon="3.789">
        <ele>57.6</ele>
        <time>2022-06-02T11:37:39.066Z</time>
      </trkpt>
      <trkpt lat="43.65148" lon="3.78865">
        <ele>58.1</ele>
        <time>2022-06-02T11:37:56.175Z</time>
      </trkpt>
      <trkpt lat="43.65148" lon="3.78841">
        <ele>60</ele>
        <time>2022-06-02T11:38:13.209Z</time>
      </trkpt>
      <trkpt lat="43.65147" lon="3.78817">
        <ele>61.9</ele>
        <time>2022-06-02T11:38:30.238Z</time>
      </trkpt>
      <trkpt lat="43.65173" lon="3.78799">
        <ele>62.4</ele>
        <time>2022-06-02T11:38:42.063Z</time>
      </trkpt>
      <trkpt lat="43.65199" lon="3.7878">
        <ele>61.5</ele>
        <time>2022-06-02T11:38:46.735Z</time>
      </trkpt>
      <trkpt lat="43.65203" lon="3.78775">
        <ele>61.3</ele>
        <time>2022-06-02T11:38:47.538Z</time>
      </trkpt>
      <trkpt lat="43.65207" lon="3.7877">
        <ele>61.3</ele>
        <time>2022-06-02T11:38:49.385Z</time>
      </trkpt>
      <trkpt lat="43.65209" lon="3.78769">
        <ele>61.2</ele>
        <time>2022-06-02T11:38:49.674Z</time>
      </trkpt>
      <trkpt lat="43.65211" lon="3.78768">
        <ele>61.1</ele>
        <time>2022-06-02T11:38:49.962Z</time>
      </trkpt>
      <trkpt lat="43.65215" lon="3.78761">
        <ele>61.4</ele>
        <time>2022-06-02T11:38:53.741Z</time>
      </trkpt>
      <trkpt lat="43.65218" lon="3.78755">
        <ele>61.8</ele>
        <time>2022-06-02T11:38:57.546Z</time>
      </trkpt>
      <trkpt lat="43.65219" lon="3.78749">
        <ele>62.3</ele>
        <time>2022-06-02T11:39:02.052Z</time>
      </trkpt>
      <trkpt lat="43.6522" lon="3.78744">
        <ele>62.6</ele>
        <time>2022-06-02T11:39:04.849Z</time>
      </trkpt>
      <trkpt lat="43.65304" lon="3.78691">
        <ele>65.1</ele>
        <time>2022-06-02T11:39:46.918Z</time>
      </trkpt>
      <trkpt lat="43.65329" lon="3.78675">
        <ele>65.1</ele>
        <time>2022-06-02T11:39:56.356Z</time>
      </trkpt>
      <trkpt lat="43.65365" lon="3.78652">
        <ele>63.6</ele>
        <time>2022-06-02T11:40:02.215Z</time>
      </trkpt>
      <trkpt lat="43.65429" lon="3.78624">
        <ele>60.7</ele>
        <time>2022-06-02T11:40:11.641Z</time>
      </trkpt>
      <trkpt lat="43.65431" lon="3.78622">
        <ele>60.7</ele>
        <time>2022-06-02T11:40:12.487Z</time>
      </trkpt>
      <trkpt lat="43.65429" lon="3.78636">
        <ele>60.8</ele>
        <time>2022-06-02T11:40:16.368Z</time>
      </trkpt>
      <trkpt lat="43.65426" lon="3.78645">
        <ele>61.3</ele>
        <time>2022-06-02T11:40:21.301Z</time>
      </trkpt>
      <trkpt lat="43.65407" lon="3.78683">
        <ele>62.2</ele>
        <time>2022-06-02T11:40:36.500Z</time>
      </trkpt>
      <trkpt lat="43.65403" lon="3.78692">
        <ele>62</ele>
        <time>2022-06-02T11:40:37.773Z</time>
      </trkpt>
      <trkpt lat="43.65399" lon="3.78726">
        <ele>62.5</ele>
        <time>2022-06-02T11:40:48.234Z</time>
      </trkpt>
      <trkpt lat="43.65378" lon="3.7876">
        <ele>60.8</ele>
        <time>2022-06-02T11:40:52.415Z</time>
      </trkpt>
      <trkpt lat="43.65364" lon="3.78773">
        <ele>60.1</ele>
        <time>2022-06-02T11:40:54.821Z</time>
      </trkpt>
      <trkpt lat="43.65358" lon="3.78783">
        <ele>59.9</ele>
        <time>2022-06-02T11:40:56.475Z</time>
      </trkpt>
      <trkpt lat="43.65354" lon="3.78801">
        <ele>59.5</ele>
        <time>2022-06-02T11:40:58.667Z</time>
      </trkpt>
      <trkpt lat="43.65351" lon="3.78827">
        <ele>58</ele>
        <time>2022-06-02T11:41:01.068Z</time>
      </trkpt>
      <trkpt lat="43.65354" lon="3.7884">
        <ele>57.7</ele>
        <time>2022-06-02T11:41:02.639Z</time>
      </trkpt>
      <trkpt lat="43.65373" lon="3.7886">
        <ele>57.9</ele>
        <time>2022-06-02T11:41:11.502Z</time>
      </trkpt>
      <trkpt lat="43.65387" lon="3.78871">
        <ele>58.3</ele>
        <time>2022-06-02T11:41:18.644Z</time>
      </trkpt>
      <trkpt lat="43.65404" lon="3.78888">
        <ele>58.1</ele>
        <time>2022-06-02T11:41:22.916Z</time>
      </trkpt>
      <trkpt lat="43.65427" lon="3.78902">
        <ele>58.1</ele>
        <time>2022-06-02T11:41:31.526Z</time>
      </trkpt>
      <trkpt lat="43.65443" lon="3.78905">
        <ele>58.9</ele>
        <time>2022-06-02T11:41:41.171Z</time>
      </trkpt>
      <trkpt lat="43.655" lon="3.78929">
        <ele>58.6</ele>
        <time>2022-06-02T11:42:00.123Z</time>
      </trkpt>
      <trkpt lat="43.65533" lon="3.78931">
        <ele>58.3</ele>
        <time>2022-06-02T11:42:06.889Z</time>
      </trkpt>
      <trkpt lat="43.65587" lon="3.78908">
        <ele>59.2</ele>
        <time>2022-06-02T11:42:29.555Z</time>
      </trkpt>
      <trkpt lat="43.65614" lon="3.78893">
        <ele>59.7</ele>
        <time>2022-06-02T11:42:41.387Z</time>
      </trkpt>
      <trkpt lat="43.65632" lon="3.78871">
        <ele>60</ele>
        <time>2022-06-02T11:42:50.682Z</time>
      </trkpt>
      <trkpt lat="43.65649" lon="3.78838">
        <ele>60.8</ele>
        <time>2022-06-02T11:43:04.071Z</time>
      </trkpt>
      <trkpt lat="43.65669" lon="3.7879">
        <ele>61.6</ele>
        <time>2022-06-02T11:43:20.873Z</time>
      </trkpt>
      <trkpt lat="43.65675" lon="3.78769">
        <ele>62.2</ele>
        <time>2022-06-02T11:43:29.307Z</time>
      </trkpt>
      <trkpt lat="43.65676" lon="3.78777">
        <ele>62</ele>
        <time>2022-06-02T11:43:30.208Z</time>
      </trkpt>
      <trkpt lat="43.65679" lon="3.78781">
        <ele>61.9</ele>
        <time>2022-06-02T11:43:30.919Z</time>
      </trkpt>
      <trkpt lat="43.65696" lon="3.78803">
        <ele>62.1</ele>
        <time>2022-06-02T11:43:39.579Z</time>
      </trkpt>
      <trkpt lat="43.65719" lon="3.78829">
        <ele>62.9</ele>
        <time>2022-06-02T11:43:53.091Z</time>
      </trkpt>
      <trkpt lat="43.65755" lon="3.78903">
        <ele>61</ele>
        <time>2022-06-02T11:44:03.464Z</time>
      </trkpt>
      <trkpt lat="43.65776" lon="3.78913">
        <ele>61.6</ele>
        <time>2022-06-02T11:44:13.576Z</time>
      </trkpt>
      <trkpt lat="43.65809" lon="3.78902">
        <ele>63.5</ele>
        <time>2022-06-02T11:44:34.740Z</time>
      </trkpt>
      <trkpt lat="43.65811" lon="3.78901">
        <ele>63.5</ele>
        <time>2022-06-02T11:44:35.468Z</time>
      </trkpt>
      <trkpt lat="43.65816" lon="3.78936">
        <ele>61.6</ele>
        <time>2022-06-02T11:44:38.721Z</time>
      </trkpt>
      <trkpt lat="43.65832" lon="3.78964">
        <ele>62</ele>
        <time>2022-06-02T11:44:49.027Z</time>
      </trkpt>
      <trkpt lat="43.65848" lon="3.79003">
        <ele>62.2</ele>
        <time>2022-06-02T11:45:00.805Z</time>
      </trkpt>
      <trkpt lat="43.65917" lon="3.78983">
        <ele>63.6</ele>
        <time>2022-06-02T11:45:30.329Z</time>
      </trkpt>
      <trkpt lat="43.65942" lon="3.78954">
        <ele>64</ele>
        <time>2022-06-02T11:45:42.925Z</time>
      </trkpt>
      <trkpt lat="43.65968" lon="3.78915">
        <ele>64.1</ele>
        <time>2022-06-02T11:45:56.391Z</time>
      </trkpt>
      <trkpt lat="43.6597" lon="3.78934">
        <ele>64</ele>
        <time>2022-06-02T11:46:00.678Z</time>
      </trkpt>
      <trkpt lat="43.65985" lon="3.78992">
        <ele>63.1</ele>
        <time>2022-06-02T11:46:08.618Z</time>
      </trkpt>
      <trkpt lat="43.66004" lon="3.79007">
        <ele>62.5</ele>
        <time>2022-06-02T11:46:12.213Z</time>
      </trkpt>
      <trkpt lat="43.66037" lon="3.79026">
        <ele>62.4</ele>
        <time>2022-06-02T11:46:23.957Z</time>
      </trkpt>
      <trkpt lat="43.66058" lon="3.79029">
        <ele>63</ele>
        <time>2022-06-02T11:46:33.736Z</time>
      </trkpt>
      <trkpt lat="43.66054" lon="3.79078">
        <ele>60.3</ele>
        <time>2022-06-02T11:46:38.231Z</time>
      </trkpt>
      <trkpt lat="43.6605" lon="3.79127">
        <ele>65.9</ele>
        <time>2022-06-02T11:47:25.373Z</time>
      </trkpt>
      <trkpt lat="43.6605" lon="3.79126">
        <ele>65.8</ele>
        <time>2022-06-02T11:47:25.464Z</time>
      </trkpt>
      <trkpt lat="43.66049" lon="3.79131">
        <ele>66.3</ele>
        <time>2022-06-02T11:47:30.409Z</time>
      </trkpt>
      <trkpt lat="43.66052" lon="3.79144">
        <ele>67.3</ele>
        <time>2022-06-02T11:47:39.317Z</time>
      </trkpt>
      <trkpt lat="43.6606" lon="3.79165">
        <ele>68.6</ele>
        <time>2022-06-02T11:47:51.687Z</time>
      </trkpt>
      <trkpt lat="43.66061" lon="3.79175">
        <ele>68.7</ele>
        <time>2022-06-02T11:47:54.548Z</time>
      </trkpt>
      <trkpt lat="43.66058" lon="3.79195">
        <ele>68.9</ele>
        <time>2022-06-02T11:48:00.327Z</time>
      </trkpt>
      <trkpt lat="43.6605" lon="3.79213">
        <ele>69.7</ele>
        <time>2022-06-02T11:48:09.625Z</time>
      </trkpt>
      <trkpt lat="43.66041" lon="3.79243">
        <ele>70.7</ele>
        <time>2022-06-02T11:48:22.818Z</time>
      </trkpt>
      <trkpt lat="43.66038" lon="3.7927">
        <ele>71.7</ele>
        <time>2022-06-02T11:48:34.703Z</time>
      </trkpt>
      <trkpt lat="43.66024" lon="3.79305">
        <ele>73.8</ele>
        <time>2022-06-02T11:48:55.046Z</time>
      </trkpt>
      <trkpt lat="43.66019" lon="3.79323">
        <ele>74.7</ele>
        <time>2022-06-02T11:49:04.281Z</time>
      </trkpt>
      <trkpt lat="43.66029" lon="3.79326">
        <ele>74.7</ele>
        <time>2022-06-02T11:49:07.787Z</time>
      </trkpt>
      <trkpt lat="43.6602" lon="3.7936">
        <ele>77.7</ele>
        <time>2022-06-02T11:49:34.974Z</time>
      </trkpt>
      <trkpt lat="43.66027" lon="3.79412">
        <ele>79.8</ele>
        <time>2022-06-02T11:49:58.654Z</time>
      </trkpt>
      <trkpt lat="43.66026" lon="3.79519">
        <ele>84.7</ele>
        <time>2022-06-02T11:50:49.456Z</time>
      </trkpt>
      <trkpt lat="43.6603" lon="3.79558">
        <ele>86.4</ele>
        <time>2022-06-02T11:51:07.680Z</time>
      </trkpt>
      <trkpt lat="43.66033" lon="3.79604">
        <ele>89.8</ele>
        <time>2022-06-02T11:51:37.968Z</time>
      </trkpt>
      <trkpt lat="43.6603" lon="3.79623">
        <ele>90.3</ele>
        <time>2022-06-02T11:51:45.114Z</time>
      </trkpt>
      <trkpt lat="43.66013" lon="3.79695">
        <ele>96.5</ele>
        <time>2022-06-02T11:52:41.109Z</time>
      </trkpt>
      <trkpt lat="43.66003" lon="3.79744">
        <ele>99.4</ele>
        <time>2022-06-02T11:53:08.292Z</time>
      </trkpt>
      <trkpt lat="43.65996" lon="3.79787">
        <ele>103.1</ele>
        <time>2022-06-02T11:53:41.962Z</time>
      </trkpt>
      <trkpt lat="43.65997" lon="3.79827">
        <ele>105.5</ele>
        <time>2022-06-02T11:54:04.073Z</time>
      </trkpt>
      <trkpt lat="43.65986" lon="3.79897">
        <ele>113</ele>
        <time>2022-06-02T11:55:12.555Z</time>
      </trkpt>
      <trkpt lat="43.65962" lon="3.79927">
        <ele>114</ele>
        <time>2022-06-02T11:55:28.018Z</time>
      </trkpt>
      <trkpt lat="43.6593" lon="3.79971">
        <ele>119.4</ele>
        <time>2022-06-02T11:56:17.748Z</time>
      </trkpt>
      <trkpt lat="43.65913" lon="3.79987">
        <ele>120.5</ele>
        <time>2022-06-02T11:56:30.357Z</time>
      </trkpt>
      <trkpt lat="43.65887" lon="3.80002">
        <ele>122.4</ele>
        <time>2022-06-02T11:56:49.412Z</time>
      </trkpt>
      <trkpt lat="43.65866" lon="3.8001">
        <ele>124.8</ele>
        <time>2022-06-02T11:57:10.956Z</time>
      </trkpt>
      <trkpt lat="43.65844" lon="3.80017">
        <ele>127.9</ele>
        <time>2022-06-02T11:57:40.788Z</time>
      </trkpt>
      <trkpt lat="43.65791" lon="3.80019">
        <ele>133</ele>
        <time>2022-06-02T11:58:26.335Z</time>
      </trkpt>
      <trkpt lat="43.6577" lon="3.80026">
        <ele>134</ele>
        <time>2022-06-02T11:58:38.969Z</time>
      </trkpt>
      <trkpt lat="43.65749" lon="3.80033">
        <ele>136.5</ele>
        <time>2022-06-02T11:59:01.699Z</time>
      </trkpt>
      <trkpt lat="43.65733" lon="3.80043">
        <ele>138.5</ele>
        <time>2022-06-02T11:59:19.794Z</time>
      </trkpt>
      <trkpt lat="43.65716" lon="3.80052">
        <ele>139.8</ele>
        <time>2022-06-02T11:59:32.480Z</time>
      </trkpt>
      <trkpt lat="43.65687" lon="3.80079">
        <ele>142.5</ele>
        <time>2022-06-02T11:59:57.973Z</time>
      </trkpt>
      <trkpt lat="43.65657" lon="3.80106">
        <ele>144.3</ele>
        <time>2022-06-02T12:00:19.458Z</time>
      </trkpt>
      <trkpt lat="43.65643" lon="3.80075">
        <ele>144.9</ele>
        <time>2022-06-02T12:00:30.893Z</time>
      </trkpt>
      <trkpt lat="43.65628" lon="3.80044">
        <ele>146</ele>
        <time>2022-06-02T12:00:45.647Z</time>
      </trkpt>
      <trkpt lat="43.65605" lon="3.80009">
        <ele>147.2</ele>
        <time>2022-06-02T12:01:02.915Z</time>
      </trkpt>
      <trkpt lat="43.65582" lon="3.79974">
        <ele>147.1</ele>
        <time>2022-06-02T12:01:14.133Z</time>
      </trkpt>
      <trkpt lat="43.65557" lon="3.79932">
        <ele>147</ele>
        <time>2022-06-02T12:01:27.109Z</time>
      </trkpt>
      <trkpt lat="43.65533" lon="3.7989">
        <ele>147</ele>
        <time>2022-06-02T12:01:40.375Z</time>
      </trkpt>
      <trkpt lat="43.65495" lon="3.79907">
        <ele>147.7</ele>
        <time>2022-06-02T12:01:56.676Z</time>
      </trkpt>
      <trkpt lat="43.65458" lon="3.79924">
        <ele>148.6</ele>
        <time>2022-06-02T12:02:13.616Z</time>
      </trkpt>
      <trkpt lat="43.65457" lon="3.79923">
        <ele>148.7</ele>
        <time>2022-06-02T12:02:14.544Z</time>
      </trkpt>
      <trkpt lat="43.6545" lon="3.79913">
        <ele>148.8</ele>
        <time>2022-06-02T12:02:18.338Z</time>
      </trkpt>
      <trkpt lat="43.65391" lon="3.79859">
        <ele>149.9</ele>
        <time>2022-06-02T12:02:46.607Z</time>
      </trkpt>
      <trkpt lat="43.65392" lon="3.79858">
        <ele>149.9</ele>
        <time>2022-06-02T12:02:47.030Z</time>
      </trkpt>
      <trkpt lat="43.65346" lon="3.79898">
        <ele>150.5</ele>
        <time>2022-06-02T12:03:07.744Z</time>
      </trkpt>
      <trkpt lat="43.65346" lon="3.79906">
        <ele>150.5</ele>
        <time>2022-06-02T12:03:09.727Z</time>
      </trkpt>
      <trkpt lat="43.65354" lon="3.79922">
        <ele>150.2</ele>
        <time>2022-06-02T12:03:12.202Z</time>
      </trkpt>
      <trkpt lat="43.65354" lon="3.79928">
        <ele>150.2</ele>
        <time>2022-06-02T12:03:13.690Z</time>
      </trkpt>
      <trkpt lat="43.65352" lon="3.79938">
        <ele>150.1</ele>
        <time>2022-06-02T12:03:15.144Z</time>
      </trkpt>
      <trkpt lat="43.65353" lon="3.79938">
        <ele>150.1</ele>
        <time>2022-06-02T12:03:15.487Z</time>
      </trkpt>
      <trkpt lat="43.65347" lon="3.79986">
        <ele>150</ele>
        <time>2022-06-02T12:03:27.058Z</time>
      </trkpt>
      <trkpt lat="43.65341" lon="3.80034">
        <ele>149.6</ele>
        <time>2022-06-02T12:03:34.064Z</time>
      </trkpt>
      <trkpt lat="43.6533" lon="3.80041">
        <ele>149.5</ele>
        <time>2022-06-02T12:03:36.572Z</time>
      </trkpt>
      <trkpt lat="43.65319" lon="3.80049">
        <ele>149.2</ele>
        <time>2022-06-02T12:03:38.690Z</time>
      </trkpt>
      <trkpt lat="43.65285" lon="3.80043">
        <ele>149.1</ele>
        <time>2022-06-02T12:03:49.930Z</time>
      </trkpt>
      <trkpt lat="43.65252" lon="3.80037">
        <ele>148.1</ele>
        <time>2022-06-02T12:03:55.249Z</time>
      </trkpt>
      <trkpt lat="43.65246" lon="3.8004">
        <ele>147.7</ele>
        <time>2022-06-02T12:03:56.008Z</time>
      </trkpt>
      <trkpt lat="43.65239" lon="3.80043">
        <ele>147.2</ele>
        <time>2022-06-02T12:03:56.932Z</time>
      </trkpt>
      <trkpt lat="43.65236" lon="3.80061">
        <ele>147.1</ele>
        <time>2022-06-02T12:03:59.730Z</time>
      </trkpt>
      <trkpt lat="43.65233" lon="3.80079">
        <ele>147.3</ele>
        <time>2022-06-02T12:04:05.036Z</time>
      </trkpt>
      <trkpt lat="43.65236" lon="3.80106">
        <ele>147.5</ele>
        <time>2022-06-02T12:04:12.499Z</time>
      </trkpt>
      <trkpt lat="43.65239" lon="3.80133">
        <ele>147</ele>
        <time>2022-06-02T12:04:15.823Z</time>
      </trkpt>
      <trkpt lat="43.65265" lon="3.80163">
        <ele>148</ele>
        <time>2022-06-02T12:04:31.728Z</time>
      </trkpt>
      <trkpt lat="43.65277" lon="3.80153">
        <ele>148</ele>
        <time>2022-06-02T12:04:36.529Z</time>
      </trkpt>
      <trkpt lat="43.65291" lon="3.80147">
        <ele>148</ele>
        <time>2022-06-02T12:04:41.550Z</time>
      </trkpt>
      <trkpt lat="43.65309" lon="3.80149">
        <ele>148</ele>
        <time>2022-06-02T12:04:47.737Z</time>
      </trkpt>
      <trkpt lat="43.6532" lon="3.80152">
        <ele>147.8</ele>
        <time>2022-06-02T12:04:49.792Z</time>
      </trkpt>
      <trkpt lat="43.65343" lon="3.80168">
        <ele>146.6</ele>
        <time>2022-06-02T12:04:53.297Z</time>
      </trkpt>
      <trkpt lat="43.65358" lon="3.80176">
        <ele>145.8</ele>
        <time>2022-06-02T12:04:55.426Z</time>
      </trkpt>
      <trkpt lat="43.65372" lon="3.80178">
        <ele>145.2</ele>
        <time>2022-06-02T12:04:57.413Z</time>
      </trkpt>
      <trkpt lat="43.65387" lon="3.80175">
        <ele>144.8</ele>
        <time>2022-06-02T12:04:59.931Z</time>
      </trkpt>
      <trkpt lat="43.65423" lon="3.80149">
        <ele>145.6</ele>
        <time>2022-06-02T12:05:16.910Z</time>
      </trkpt>
      <trkpt lat="43.6542" lon="3.8015">
        <ele>145.6</ele>
        <time>2022-06-02T12:05:17.967Z</time>
      </trkpt>
      <trkpt lat="43.65414" lon="3.80119">
        <ele>146.7</ele>
        <time>2022-06-02T12:05:31.641Z</time>
      </trkpt>
      <trkpt lat="43.65421" lon="3.80123">
        <ele>146.6</ele>
        <time>2022-06-02T12:05:33.111Z</time>
      </trkpt>
      <trkpt lat="43.6543" lon="3.80123">
        <ele>146.6</ele>
        <time>2022-06-02T12:05:36.195Z</time>
      </trkpt>
      <trkpt lat="43.65439" lon="3.80114">
        <ele>146.9</ele>
        <time>2022-06-02T12:05:41.252Z</time>
      </trkpt>
      <trkpt lat="43.65454" lon="3.80112">
        <ele>147</ele>
        <time>2022-06-02T12:05:46.749Z</time>
      </trkpt>
      <trkpt lat="43.65467" lon="3.80093">
        <ele>147.1</ele>
        <time>2022-06-02T12:05:53.561Z</time>
      </trkpt>
      <trkpt lat="43.65469" lon="3.80096">
        <ele>147.1</ele>
        <time>2022-06-02T12:05:54.572Z</time>
      </trkpt>
      <trkpt lat="43.6548" lon="3.80108">
        <ele>147</ele>
        <time>2022-06-02T12:05:58.900Z</time>
      </trkpt>
      <trkpt lat="43.65487" lon="3.80119">
        <ele>146.7</ele>
        <time>2022-06-02T12:06:00.625Z</time>
      </trkpt>
      <trkpt lat="43.65511" lon="3.80136">
        <ele>146.1</ele>
        <time>2022-06-02T12:06:05.318Z</time>
      </trkpt>
      <trkpt lat="43.65511" lon="3.80141">
        <ele>146</ele>
        <time>2022-06-02T12:06:05.911Z</time>
      </trkpt>
      <trkpt lat="43.65519" lon="3.80147">
        <ele>145.9</ele>
        <time>2022-06-02T12:06:07.729Z</time>
      </trkpt>
      <trkpt lat="43.65548" lon="3.80152">
        <ele>146.4</ele>
        <time>2022-06-02T12:06:19.602Z</time>
      </trkpt>
      <trkpt lat="43.65566" lon="3.80168">
        <ele>146</ele>
        <time>2022-06-02T12:06:23.484Z</time>
      </trkpt>
      <trkpt lat="43.65584" lon="3.80184">
        <ele>146</ele>
        <time>2022-06-02T12:06:30.816Z</time>
      </trkpt>
      <trkpt lat="43.65583" lon="3.80191">
        <ele>146</ele>
        <time>2022-06-02T12:06:32.584Z</time>
      </trkpt>
      <trkpt lat="43.65582" lon="3.80198">
        <ele>146</ele>
        <time>2022-06-02T12:06:34.353Z</time>
      </trkpt>
      <trkpt lat="43.65575" lon="3.80206">
        <ele>146</ele>
        <time>2022-06-02T12:06:37.465Z</time>
      </trkpt>
      <trkpt lat="43.65569" lon="3.80215">
        <ele>146</ele>
        <time>2022-06-02T12:06:40.499Z</time>
      </trkpt>
      <trkpt lat="43.65541" lon="3.80228">
        <ele>146</ele>
        <time>2022-06-02T12:06:50.618Z</time>
      </trkpt>
      <trkpt lat="43.65514" lon="3.80241">
        <ele>145.5</ele>
        <time>2022-06-02T12:06:55.880Z</time>
      </trkpt>
      <trkpt lat="43.65503" lon="3.80252">
        <ele>145</ele>
        <time>2022-06-02T12:06:57.905Z</time>
      </trkpt>
      <trkpt lat="43.65492" lon="3.80263">
        <ele>144</ele>
        <time>2022-06-02T12:06:59.616Z</time>
      </trkpt>
      <trkpt lat="43.65493" lon="3.80274">
        <ele>143.6</ele>
        <time>2022-06-02T12:07:00.677Z</time>
      </trkpt>
      <trkpt lat="43.65495" lon="3.80285">
        <ele>143.3</ele>
        <time>2022-06-02T12:07:01.904Z</time>
      </trkpt>
      <trkpt lat="43.65499" lon="3.80293">
        <ele>143.3</ele>
        <time>2022-06-02T12:07:04.315Z</time>
      </trkpt>
      <trkpt lat="43.65504" lon="3.80301">
        <ele>143.5</ele>
        <time>2022-06-02T12:07:07.761Z</time>
      </trkpt>
      <trkpt lat="43.65504" lon="3.80309">
        <ele>143.1</ele>
        <time>2022-06-02T12:07:08.490Z</time>
      </trkpt>
      <trkpt lat="43.65505" lon="3.80318">
        <ele>142.5</ele>
        <time>2022-06-02T12:07:09.320Z</time>
      </trkpt>
      <trkpt lat="43.65503" lon="3.80329">
        <ele>141.6</ele>
        <time>2022-06-02T12:07:10.354Z</time>
      </trkpt>
      <trkpt lat="43.65502" lon="3.80339">
        <ele>140.4</ele>
        <time>2022-06-02T12:07:11.274Z</time>
      </trkpt>
      <trkpt lat="43.65508" lon="3.80352">
        <ele>139.6</ele>
        <time>2022-06-02T12:07:12.680Z</time>
      </trkpt>
      <trkpt lat="43.65514" lon="3.80364">
        <ele>138.9</ele>
        <time>2022-06-02T12:07:13.901Z</time>
      </trkpt>
      <trkpt lat="43.65523" lon="3.80372">
        <ele>138.3</ele>
        <time>2022-06-02T12:07:15.244Z</time>
      </trkpt>
      <trkpt lat="43.65532" lon="3.80379">
        <ele>137.2</ele>
        <time>2022-06-02T12:07:16.546Z</time>
      </trkpt>
      <trkpt lat="43.65569" lon="3.80392">
        <ele>136.3</ele>
        <time>2022-06-02T12:07:23.090Z</time>
      </trkpt>
      <trkpt lat="43.65606" lon="3.80405">
        <ele>135.6</ele>
        <time>2022-06-02T12:07:30.045Z</time>
      </trkpt>
      <trkpt lat="43.65618" lon="3.80415">
        <ele>133.7</ele>
        <time>2022-06-02T12:07:31.810Z</time>
      </trkpt>
      <trkpt lat="43.65631" lon="3.80424">
        <ele>133.1</ele>
        <time>2022-06-02T12:07:33.889Z</time>
      </trkpt>
      <trkpt lat="43.6566" lon="3.80432">
        <ele>134</ele>
        <time>2022-06-02T12:07:47.936Z</time>
      </trkpt>
      <trkpt lat="43.6569" lon="3.8044">
        <ele>134.5</ele>
        <time>2022-06-02T12:08:00.250Z</time>
      </trkpt>
      <trkpt lat="43.65776" lon="3.80485">
        <ele>132.5</ele>
        <time>2022-06-02T12:08:16.344Z</time>
      </trkpt>
      <trkpt lat="43.65811" lon="3.80504">
        <ele>130.4</ele>
        <time>2022-06-02T12:08:21.072Z</time>
      </trkpt>
      <trkpt lat="43.65832" lon="3.80508">
        <ele>130.8</ele>
        <time>2022-06-02T12:08:29.852Z</time>
      </trkpt>
      <trkpt lat="43.65853" lon="3.80513">
        <ele>131.5</ele>
        <time>2022-06-02T12:08:40.295Z</time>
      </trkpt>
      <trkpt lat="43.65898" lon="3.80558">
        <ele>128.8</ele>
        <time>2022-06-02T12:08:47.723Z</time>
      </trkpt>
      <trkpt lat="43.65951" lon="3.80586">
        <ele>127.4</ele>
        <time>2022-06-02T12:08:57.330Z</time>
      </trkpt>
      <trkpt lat="43.65993" lon="3.80593">
        <ele>127.9</ele>
        <time>2022-06-02T12:09:13.583Z</time>
      </trkpt>
      <trkpt lat="43.66089" lon="3.80691">
        <ele>127.2</ele>
        <time>2022-06-02T12:09:51.099Z</time>
      </trkpt>
      <trkpt lat="43.66194" lon="3.8076">
        <ele>124.8</ele>
        <time>2022-06-02T12:10:11.709Z</time>
      </trkpt>
      <trkpt lat="43.66207" lon="3.80797">
        <ele>118.5</ele>
        <time>2022-06-02T12:10:15.458Z</time>
      </trkpt>
      <trkpt lat="43.66253" lon="3.80842">
        <ele>117.8</ele>
        <time>2022-06-02T12:10:26.505Z</time>
      </trkpt>
      <trkpt lat="43.66291" lon="3.80866">
        <ele>120</ele>
        <time>2022-06-02T12:10:51.977Z</time>
      </trkpt>
      <trkpt lat="43.66301" lon="3.80879">
        <ele>119.4</ele>
        <time>2022-06-02T12:10:53.895Z</time>
      </trkpt>
      <trkpt lat="43.66302" lon="3.80928">
        <ele>111.8</ele>
        <time>2022-06-02T12:10:58.364Z</time>
      </trkpt>
      <trkpt lat="43.66337" lon="3.81017">
        <ele>106.4</ele>
        <time>2022-06-02T12:11:07.597Z</time>
      </trkpt>
      <trkpt lat="43.66341" lon="3.81049">
        <ele>102.6</ele>
        <time>2022-06-02T12:11:10.558Z</time>
      </trkpt>
      <trkpt lat="43.66349" lon="3.81063">
        <ele>101.6</ele>
        <time>2022-06-02T12:11:12.184Z</time>
      </trkpt>
      <trkpt lat="43.66357" lon="3.81078">
        <ele>101.1</ele>
        <time>2022-06-02T12:11:14.190Z</time>
      </trkpt>
      <trkpt lat="43.66363" lon="3.81086">
        <ele>101</ele>
        <time>2022-06-02T12:11:15.833Z</time>
      </trkpt>
      <trkpt lat="43.66368" lon="3.81095">
        <ele>101.1</ele>
        <time>2022-06-02T12:11:18.999Z</time>
      </trkpt>
      <trkpt lat="43.66379" lon="3.81097">
        <ele>101.8</ele>
        <time>2022-06-02T12:11:26.269Z</time>
      </trkpt>
      <trkpt lat="43.6639" lon="3.811">
        <ele>102.5</ele>
        <time>2022-06-02T12:11:33.581Z</time>
      </trkpt>
      <trkpt lat="43.66398" lon="3.81111">
        <ele>103</ele>
        <time>2022-06-02T12:11:40.088Z</time>
      </trkpt>
      <trkpt lat="43.66406" lon="3.81123">
        <ele>103.2</ele>
        <time>2022-06-02T12:11:44.875Z</time>
      </trkpt>
      <trkpt lat="43.66409" lon="3.81131">
        <ele>102.9</ele>
        <time>2022-06-02T12:11:45.767Z</time>
      </trkpt>
      <trkpt lat="43.66413" lon="3.8114">
        <ele>102.7</ele>
        <time>2022-06-02T12:11:47.040Z</time>
      </trkpt>
      <trkpt lat="43.66414" lon="3.81152">
        <ele>102.9</ele>
        <time>2022-06-02T12:11:50.828Z</time>
      </trkpt>
      <trkpt lat="43.66414" lon="3.81164">
        <ele>102.9</ele>
        <time>2022-06-02T12:11:53.802Z</time>
      </trkpt>
      <trkpt lat="43.66406" lon="3.81171">
        <ele>103</ele>
        <time>2022-06-02T12:11:57.393Z</time>
      </trkpt>
      <trkpt lat="43.66397" lon="3.81177">
        <ele>102.9</ele>
        <time>2022-06-02T12:11:59.415Z</time>
      </trkpt>
      <trkpt lat="43.66385" lon="3.8118">
        <ele>102.1</ele>
        <time>2022-06-02T12:12:00.834Z</time>
      </trkpt>
      <trkpt lat="43.66372" lon="3.81182">
        <ele>100.7</ele>
        <time>2022-06-02T12:12:02.482Z</time>
      </trkpt>
      <trkpt lat="43.66368" lon="3.81194">
        <ele>100.7</ele>
        <time>2022-06-02T12:12:05.757Z</time>
      </trkpt>
      <trkpt lat="43.66364" lon="3.81206">
        <ele>102</ele>
        <time>2022-06-02T12:12:18.387Z</time>
      </trkpt>
      <trkpt lat="43.66359" lon="3.81204">
        <ele>101.2</ele>
        <time>2022-06-02T12:12:19.043Z</time>
      </trkpt>
      <trkpt lat="43.66353" lon="3.81202">
        <ele>100.4</ele>
        <time>2022-06-02T12:12:19.821Z</time>
      </trkpt>
      <trkpt lat="43.66336" lon="3.81201">
        <ele>98.9</ele>
        <time>2022-06-02T12:12:21.965Z</time>
      </trkpt>
      <trkpt lat="43.66319" lon="3.812">
        <ele>97.5</ele>
        <time>2022-06-02T12:12:24.109Z</time>
      </trkpt>
      <trkpt lat="43.66309" lon="3.8121">
        <ele>97.4</ele>
        <time>2022-06-02T12:12:26.671Z</time>
      </trkpt>
      <trkpt lat="43.66298" lon="3.81219">
        <ele>96.7</ele>
        <time>2022-06-02T12:12:28.293Z</time>
      </trkpt>
      <trkpt lat="43.663" lon="3.81229">
        <ele>98.1</ele>
        <time>2022-06-02T12:12:38.211Z</time>
      </trkpt>
      <trkpt lat="43.66302" lon="3.8124">
        <ele>100</ele>
        <time>2022-06-02T12:12:49.054Z</time>
      </trkpt>
      <trkpt lat="43.66394" lon="3.81244">
        <ele>111.5</ele>
        <time>2022-06-02T12:14:37.387Z</time>
      </trkpt>
      <trkpt lat="43.66398" lon="3.81244">
        <ele>111.8</ele>
        <time>2022-06-02T12:14:40.253Z</time>
      </trkpt>
      <trkpt lat="43.66444" lon="3.81244">
        <ele>117.1</ele>
        <time>2022-06-02T12:15:28.371Z</time>
      </trkpt>
      <trkpt lat="43.66489" lon="3.81244">
        <ele>122.3</ele>
        <time>2022-06-02T12:16:15.627Z</time>
      </trkpt>
      <trkpt lat="43.6651" lon="3.81245">
        <ele>125.6</ele>
        <time>2022-06-02T12:16:43.394Z</time>
      </trkpt>
      <trkpt lat="43.6653" lon="3.81246">
        <ele>128.8</ele>
        <time>2022-06-02T12:17:09.841Z</time>
      </trkpt>
      <trkpt lat="43.66562" lon="3.81242">
        <ele>133.9</ele>
        <time>2022-06-02T12:17:52.300Z</time>
      </trkpt>
      <trkpt lat="43.66589" lon="3.81246">
        <ele>137.3</ele>
        <time>2022-06-02T12:18:24.372Z</time>
      </trkpt>
      <trkpt lat="43.66623" lon="3.81232">
        <ele>138.5</ele>
        <time>2022-06-02T12:18:41.982Z</time>
      </trkpt>
      <trkpt lat="43.66673" lon="3.81217">
        <ele>139.4</ele>
        <time>2022-06-02T12:19:02.878Z</time>
      </trkpt>
      <trkpt lat="43.66703" lon="3.81226">
        <ele>138.4</ele>
        <time>2022-06-02T12:19:07.657Z</time>
      </trkpt>
      <trkpt lat="43.66719" lon="3.81217">
        <ele>138.5</ele>
        <time>2022-06-02T12:19:13.906Z</time>
      </trkpt>
      <trkpt lat="43.66732" lon="3.81216">
        <ele>138.1</ele>
        <time>2022-06-02T12:19:15.972Z</time>
      </trkpt>
      <trkpt lat="43.66748" lon="3.81224">
        <ele>136.9</ele>
        <time>2022-06-02T12:19:18.116Z</time>
      </trkpt>
      <trkpt lat="43.66754" lon="3.81228">
        <ele>136.4</ele>
        <time>2022-06-02T12:19:18.955Z</time>
      </trkpt>
      <trkpt lat="43.66742" lon="3.81243">
        <ele>135.3</ele>
        <time>2022-06-02T12:19:20.993Z</time>
      </trkpt>
      <trkpt lat="43.66729" lon="3.81263">
        <ele>136</ele>
        <time>2022-06-02T12:19:30.934Z</time>
      </trkpt>
      <trkpt lat="43.66712" lon="3.81282">
        <ele>137.3</ele>
        <time>2022-06-02T12:19:44.896Z</time>
      </trkpt>
      <trkpt lat="43.667" lon="3.81308">
        <ele>136.8</ele>
        <time>2022-06-02T12:19:48.771Z</time>
      </trkpt>
      <trkpt lat="43.66691" lon="3.81335">
        <ele>134.9</ele>
        <time>2022-06-02T12:19:51.481Z</time>
      </trkpt>
      <trkpt lat="43.66677" lon="3.81393">
        <ele>130.9</ele>
        <time>2022-06-02T12:19:57.054Z</time>
      </trkpt>
      <trkpt lat="43.66676" lon="3.81407">
        <ele>130.8</ele>
        <time>2022-06-02T12:19:59.118Z</time>
      </trkpt>
      <trkpt lat="43.66676" lon="3.81434">
        <ele>131.3</ele>
        <time>2022-06-02T12:20:07.859Z</time>
      </trkpt>
      <trkpt lat="43.66687" lon="3.8148">
        <ele>133.8</ele>
        <time>2022-06-02T12:20:32.265Z</time>
      </trkpt>
      <trkpt lat="43.66693" lon="3.81497">
        <ele>134.8</ele>
        <time>2022-06-02T12:20:41.923Z</time>
      </trkpt>
      <trkpt lat="43.66701" lon="3.81513">
        <ele>135.1</ele>
        <time>2022-06-02T12:20:47.913Z</time>
      </trkpt>
      <trkpt lat="43.66719" lon="3.81537">
        <ele>135.8</ele>
        <time>2022-06-02T12:20:59.435Z</time>
      </trkpt>
      <trkpt lat="43.66757" lon="3.81582">
        <ele>135.4</ele>
        <time>2022-06-02T12:21:09.837Z</time>
      </trkpt>
      <trkpt lat="43.66767" lon="3.81602">
        <ele>135.4</ele>
        <time>2022-06-02T12:21:15.862Z</time>
      </trkpt>
      <trkpt lat="43.66794" lon="3.81706">
        <ele>137.9</ele>
        <time>2022-06-02T12:21:54.241Z</time>
      </trkpt>
      <trkpt lat="43.66819" lon="3.81775">
        <ele>138.9</ele>
        <time>2022-06-02T12:22:17.120Z</time>
      </trkpt>
      <trkpt lat="43.66821" lon="3.81792">
        <ele>138.8</ele>
        <time>2022-06-02T12:22:19.709Z</time>
      </trkpt>
      <trkpt lat="43.66825" lon="3.81807">
        <ele>138.7</ele>
        <time>2022-06-02T12:22:22.092Z</time>
      </trkpt>
      <trkpt lat="43.66851" lon="3.81877">
        <ele>139</ele>
        <time>2022-06-02T12:22:42.582Z</time>
      </trkpt>
      <trkpt lat="43.66872" lon="3.81945">
        <ele>138</ele>
        <time>2022-06-02T12:22:52.283Z</time>
      </trkpt>
      <trkpt lat="43.66895" lon="3.81997">
        <ele>137.7</ele>
        <time>2022-06-02T12:23:05.961Z</time>
      </trkpt>
      <trkpt lat="43.66925" lon="3.82049">
        <ele>135.7</ele>
        <time>2022-06-02T12:23:12.820Z</time>
      </trkpt>
      <trkpt lat="43.6694" lon="3.82073">
        <ele>134.4</ele>
        <time>2022-06-02T12:23:15.685Z</time>
      </trkpt>
      <trkpt lat="43.66961" lon="3.82096">
        <ele>132.4</ele>
        <time>2022-06-02T12:23:19.061Z</time>
      </trkpt>
      <trkpt lat="43.66977" lon="3.82111">
        <ele>131.7</ele>
        <time>2022-06-02T12:23:21.962Z</time>
      </trkpt>
      <trkpt lat="43.67015" lon="3.82137">
        <ele>129</ele>
        <time>2022-06-02T12:23:26.970Z</time>
      </trkpt>
      <trkpt lat="43.67025" lon="3.82138">
        <ele>128.2</ele>
        <time>2022-06-02T12:23:28.233Z</time>
      </trkpt>
      <trkpt lat="43.67045" lon="3.82136">
        <ele>126.9</ele>
        <time>2022-06-02T12:23:30.581Z</time>
      </trkpt>
      <trkpt lat="43.67068" lon="3.82137">
        <ele>125.7</ele>
        <time>2022-06-02T12:23:33.565Z</time>
      </trkpt>
      <trkpt lat="43.67084" lon="3.82145">
        <ele>124.6</ele>
        <time>2022-06-02T12:23:35.560Z</time>
      </trkpt>
      <trkpt lat="43.67101" lon="3.82162">
        <ele>123.9</ele>
        <time>2022-06-02T12:23:38.800Z</time>
      </trkpt>
      <trkpt lat="43.67104" lon="3.82165">
        <ele>123.8</ele>
        <time>2022-06-02T12:23:39.411Z</time>
      </trkpt>
      <trkpt lat="43.6709" lon="3.8219">
        <ele>122.4</ele>
        <time>2022-06-02T12:23:42.164Z</time>
      </trkpt>
      <trkpt lat="43.6708" lon="3.82216">
        <ele>121.4</ele>
        <time>2022-06-02T12:23:45.055Z</time>
      </trkpt>
      <trkpt lat="43.67074" lon="3.82238">
        <ele>120.2</ele>
        <time>2022-06-02T12:23:47.198Z</time>
      </trkpt>
      <trkpt lat="43.67012" lon="3.82375">
        <ele>116.3</ele>
        <time>2022-06-02T12:24:05.247Z</time>
      </trkpt>
      <trkpt lat="43.66984" lon="3.82418">
        <ele>113.8</ele>
        <time>2022-06-02T12:24:10.346Z</time>
      </trkpt>
      <trkpt lat="43.66979" lon="3.82418">
        <ele>113.4</ele>
        <time>2022-06-02T12:24:10.976Z</time>
      </trkpt>
      <trkpt lat="43.66978" lon="3.82359">
        <ele>115.5</ele>
        <time>2022-06-02T12:24:36.414Z</time>
      </trkpt>
      <trkpt lat="43.66977" lon="3.82346">
        <ele>116</ele>
        <time>2022-06-02T12:24:42.188Z</time>
      </trkpt>
      <trkpt lat="43.66965" lon="3.82312">
        <ele>118</ele>
        <time>2022-06-02T12:25:01.503Z</time>
      </trkpt>
      <trkpt lat="43.66945" lon="3.8228">
        <ele>118.2</ele>
        <time>2022-06-02T12:25:12.651Z</time>
      </trkpt>
      <trkpt lat="43.66911" lon="3.82243">
        <ele>121.4</ele>
        <time>2022-06-02T12:25:43.398Z</time>
      </trkpt>
      <trkpt lat="43.66879" lon="3.82215">
        <ele>123.6</ele>
        <time>2022-06-02T12:26:07.355Z</time>
      </trkpt>
      <trkpt lat="43.66865" lon="3.82209">
        <ele>124.5</ele>
        <time>2022-06-02T12:26:16.845Z</time>
      </trkpt>
      <trkpt lat="43.66851" lon="3.82197">
        <ele>125</ele>
        <time>2022-06-02T12:26:24.662Z</time>
      </trkpt>
      <trkpt lat="43.66843" lon="3.82188">
        <ele>125.3</ele>
        <time>2022-06-02T12:26:29.479Z</time>
      </trkpt>
      <trkpt lat="43.66833" lon="3.82166">
        <ele>125.1</ele>
        <time>2022-06-02T12:26:33.250Z</time>
      </trkpt>
      <trkpt lat="43.66825" lon="3.82142">
        <ele>127.5</ele>
        <time>2022-06-02T12:26:55.927Z</time>
      </trkpt>
      <trkpt lat="43.66811" lon="3.82122">
        <ele>128.5</ele>
        <time>2022-06-02T12:27:07.962Z</time>
      </trkpt>
      <trkpt lat="43.66796" lon="3.82103">
        <ele>130.1</ele>
        <time>2022-06-02T12:27:22.965Z</time>
      </trkpt>
      <trkpt lat="43.66788" lon="3.8209">
        <ele>131</ele>
        <time>2022-06-02T12:27:31.667Z</time>
      </trkpt>
      <trkpt lat="43.6678" lon="3.82065">
        <ele>131.1</ele>
        <time>2022-06-02T12:27:38.771Z</time>
      </trkpt>
      <trkpt lat="43.66772" lon="3.82023">
        <ele>133.3</ele>
        <time>2022-06-02T12:28:00.434Z</time>
      </trkpt>
      <trkpt lat="43.66769" lon="3.8201">
        <ele>134.1</ele>
        <time>2022-06-02T12:28:07.857Z</time>
      </trkpt>
      <trkpt lat="43.66765" lon="3.81999">
        <ele>134.6</ele>
        <time>2022-06-02T12:28:13.416Z</time>
      </trkpt>
      <trkpt lat="43.66758" lon="3.8199">
        <ele>134.9</ele>
        <time>2022-06-02T12:28:18.012Z</time>
      </trkpt>
      <trkpt lat="43.66732" lon="3.81965">
        <ele>134.9</ele>
        <time>2022-06-02T12:28:28.863Z</time>
      </trkpt>
      <trkpt lat="43.66694" lon="3.81952">
        <ele>134.7</ele>
        <time>2022-06-02T12:28:41.301Z</time>
      </trkpt>
      <trkpt lat="43.6659" lon="3.81871">
        <ele>139.3</ele>
        <time>2022-06-02T12:29:44.508Z</time>
      </trkpt>
      <trkpt lat="43.66517" lon="3.81809">
        <ele>141.4</ele>
        <time>2022-06-02T12:30:22.359Z</time>
      </trkpt>
      <trkpt lat="43.6648" lon="3.81773">
        <ele>142.8</ele>
        <time>2022-06-02T12:30:43.992Z</time>
      </trkpt>
      <trkpt lat="43.66443" lon="3.81742">
        <ele>144.1</ele>
        <time>2022-06-02T12:31:04.444Z</time>
      </trkpt>
      <trkpt lat="43.66406" lon="3.81711">
        <ele>145.6</ele>
        <time>2022-06-02T12:31:26.164Z</time>
      </trkpt>
      <trkpt lat="43.66392" lon="3.81697">
        <ele>146</ele>
        <time>2022-06-02T12:31:33.677Z</time>
      </trkpt>
      <trkpt lat="43.66377" lon="3.81684">
        <ele>147.2</ele>
        <time>2022-06-02T12:31:45.682Z</time>
      </trkpt>
      <trkpt lat="43.6635" lon="3.81689">
        <ele>148.9</ele>
        <time>2022-06-02T12:32:03.445Z</time>
      </trkpt>
      <trkpt lat="43.66323" lon="3.81694">
        <ele>147.4</ele>
        <time>2022-06-02T12:32:06.893Z</time>
      </trkpt>
      <trkpt lat="43.6631" lon="3.81698">
        <ele>144.1</ele>
        <time>2022-06-02T12:32:08.571Z</time>
      </trkpt>
      <trkpt lat="43.66297" lon="3.81701">
        <ele>139.8</ele>
        <time>2022-06-02T12:32:10.231Z</time>
      </trkpt>
      <trkpt lat="43.66275" lon="3.81686">
        <ele>131.9</ele>
        <time>2022-06-02T12:32:13.322Z</time>
      </trkpt>
      <trkpt lat="43.66252" lon="3.81671">
        <ele>125.4</ele>
        <time>2022-06-02T12:32:16.527Z</time>
      </trkpt>
      <trkpt lat="43.66237" lon="3.81676">
        <ele>119.5</ele>
        <time>2022-06-02T12:32:18.471Z</time>
      </trkpt>
      <trkpt lat="43.66221" lon="3.81681">
        <ele>113.1</ele>
        <time>2022-06-02T12:32:20.538Z</time>
      </trkpt>
      <trkpt lat="43.66223" lon="3.81732">
        <ele>112.6</ele>
        <time>2022-06-02T12:32:27.679Z</time>
      </trkpt>
      <trkpt lat="43.6623" lon="3.81761">
        <ele>113.9</ele>
        <time>2022-06-02T12:32:41.737Z</time>
      </trkpt>
      <trkpt lat="43.66226" lon="3.81777">
        <ele>112.2</ele>
        <time>2022-06-02T12:32:43.280Z</time>
      </trkpt>
      <trkpt lat="43.66226" lon="3.81837">
        <ele>111.1</ele>
        <time>2022-06-02T12:32:50.575Z</time>
      </trkpt>
      <trkpt lat="43.66223" lon="3.81846">
        <ele>110.2</ele>
        <time>2022-06-02T12:32:51.479Z</time>
      </trkpt>
      <trkpt lat="43.6622" lon="3.81892">
        <ele>109.6</ele>
        <time>2022-06-02T12:32:57.593Z</time>
      </trkpt>
      <trkpt lat="43.66204" lon="3.81996">
        <ele>104.4</ele>
        <time>2022-06-02T12:33:07.285Z</time>
      </trkpt>
      <trkpt lat="43.66242" lon="3.82026">
        <ele>110.5</ele>
        <time>2022-06-02T12:34:05.114Z</time>
      </trkpt>
      <trkpt lat="43.66253" lon="3.82059">
        <ele>109.9</ele>
        <time>2022-06-02T12:34:09.658Z</time>
      </trkpt>
      <trkpt lat="43.66267" lon="3.82089">
        <ele>112.1</ele>
        <time>2022-06-02T12:34:29.765Z</time>
      </trkpt>
      <trkpt lat="43.66277" lon="3.82132">
        <ele>111.3</ele>
        <time>2022-06-02T12:34:35.309Z</time>
      </trkpt>
      <trkpt lat="43.66307" lon="3.82187">
        <ele>115.2</ele>
        <time>2022-06-02T12:35:11.946Z</time>
      </trkpt>
      <trkpt lat="43.66321" lon="3.82304">
        <ele>110.9</ele>
        <time>2022-06-02T12:35:23.268Z</time>
      </trkpt>
      <trkpt lat="43.66369" lon="3.82403">
        <ele>115.7</ele>
        <time>2022-06-02T12:36:16.911Z</time>
      </trkpt>
      <trkpt lat="43.66328" lon="3.82432">
        <ele>107.8</ele>
        <time>2022-06-02T12:36:22.714Z</time>
      </trkpt>
      <trkpt lat="43.66308" lon="3.82459">
        <ele>105.5</ele>
        <time>2022-06-02T12:36:26.237Z</time>
      </trkpt>
      <trkpt lat="43.663" lon="3.82524">
        <ele>107.2</ele>
        <time>2022-06-02T12:36:50.499Z</time>
      </trkpt>
      <trkpt lat="43.66304" lon="3.82563">
        <ele>109.7</ele>
        <time>2022-06-02T12:37:13.176Z</time>
      </trkpt>
      <trkpt lat="43.663" lon="3.82571">
        <ele>109.1</ele>
        <time>2022-06-02T12:37:14.062Z</time>
      </trkpt>
      <trkpt lat="43.66296" lon="3.82583">
        <ele>108.6</ele>
        <time>2022-06-02T12:37:15.300Z</time>
      </trkpt>
      <trkpt lat="43.66297" lon="3.82594">
        <ele>109.4</ele>
        <time>2022-06-02T12:37:22.428Z</time>
      </trkpt>
      <trkpt lat="43.66297" lon="3.82601">
        <ele>109.8</ele>
        <time>2022-06-02T12:37:26.173Z</time>
      </trkpt>
      <trkpt lat="43.66291" lon="3.82611">
        <ele>109.4</ele>
        <time>2022-06-02T12:37:27.501Z</time>
      </trkpt>
      <trkpt lat="43.66289" lon="3.8262">
        <ele>108.5</ele>
        <time>2022-06-02T12:37:28.359Z</time>
      </trkpt>
      <trkpt lat="43.66281" lon="3.82625">
        <ele>106.6</ele>
        <time>2022-06-02T12:37:29.465Z</time>
      </trkpt>
      <trkpt lat="43.66271" lon="3.82627">
        <ele>105.2</ele>
        <time>2022-06-02T12:37:30.738Z</time>
      </trkpt>
      <trkpt lat="43.66259" lon="3.8263">
        <ele>103.9</ele>
        <time>2022-06-02T12:37:32.275Z</time>
      </trkpt>
      <trkpt lat="43.66258" lon="3.82633">
        <ele>103.7</ele>
        <time>2022-06-02T12:37:32.576Z</time>
      </trkpt>
      <trkpt lat="43.66257" lon="3.82637">
        <ele>103.5</ele>
        <time>2022-06-02T12:37:32.933Z</time>
      </trkpt>
      <trkpt lat="43.6626" lon="3.8265">
        <ele>104.4</ele>
        <time>2022-06-02T12:37:41.031Z</time>
      </trkpt>
      <trkpt lat="43.6626" lon="3.82656">
        <ele>104.8</ele>
        <time>2022-06-02T12:37:44.624Z</time>
      </trkpt>
      <trkpt lat="43.66258" lon="3.82663">
        <ele>104.9</ele>
        <time>2022-06-02T12:37:46.867Z</time>
      </trkpt>
      <trkpt lat="43.66259" lon="3.8267">
        <ele>105.6</ele>
        <time>2022-06-02T12:37:53.688Z</time>
      </trkpt>
      <trkpt lat="43.66256" lon="3.8268">
        <ele>106</ele>
        <time>2022-06-02T12:37:58.412Z</time>
      </trkpt>
      <trkpt lat="43.66259" lon="3.82691">
        <ele>107.6</ele>
        <time>2022-06-02T12:38:09.651Z</time>
      </trkpt>
      <trkpt lat="43.66259" lon="3.82695">
        <ele>108</ele>
        <time>2022-06-02T12:38:13.475Z</time>
      </trkpt>
      <trkpt lat="43.66252" lon="3.82707">
        <ele>107.4</ele>
        <time>2022-06-02T12:38:14.901Z</time>
      </trkpt>
      <trkpt lat="43.66247" lon="3.82721">
        <ele>107.9</ele>
        <time>2022-06-02T12:38:21.410Z</time>
      </trkpt>
      <trkpt lat="43.66158" lon="3.82755">
        <ele>107.6</ele>
        <time>2022-06-02T12:38:51.545Z</time>
      </trkpt>
      <trkpt lat="43.6607" lon="3.82789">
        <ele>111.6</ele>
        <time>2022-06-02T12:39:43.805Z</time>
      </trkpt>
      <trkpt lat="43.66067" lon="3.8279">
        <ele>111.1</ele>
        <time>2022-06-02T12:39:44.194Z</time>
      </trkpt>
      <trkpt lat="43.66041" lon="3.8283">
        <ele>115.4</ele>
        <time>2022-06-02T12:40:22.818Z</time>
      </trkpt>
      <trkpt lat="43.66015" lon="3.8287">
        <ele>111.3</ele>
        <time>2022-06-02T12:40:27.720Z</time>
      </trkpt>
      <trkpt lat="43.66074" lon="3.82969">
        <ele>102.9</ele>
        <time>2022-06-02T12:40:39.412Z</time>
      </trkpt>
      <trkpt lat="43.66075" lon="3.82971">
        <ele>102.3</ele>
        <time>2022-06-02T12:40:39.634Z</time>
      </trkpt>
      <trkpt lat="43.66037" lon="3.82979">
        <ele>99.3</ele>
        <time>2022-06-02T12:40:44.477Z</time>
      </trkpt>
      <trkpt lat="43.65999" lon="3.82987">
        <ele>95.9</ele>
        <time>2022-06-02T12:40:49.320Z</time>
      </trkpt>
      <trkpt lat="43.65857" lon="3.83008">
        <ele>91.1</ele>
        <time>2022-06-02T12:41:11.316Z</time>
      </trkpt>
      <trkpt lat="43.65834" lon="3.83008">
        <ele>91</ele>
        <time>2022-06-02T12:41:18.704Z</time>
      </trkpt>
      <trkpt lat="43.6583" lon="3.83004">
        <ele>90.8</ele>
        <time>2022-06-02T12:41:19.415Z</time>
      </trkpt>
      <trkpt lat="43.65826" lon="3.83004">
        <ele>90.5</ele>
        <time>2022-06-02T12:41:19.919Z</time>
      </trkpt>
      <trkpt lat="43.65822" lon="3.83006">
        <ele>90.3</ele>
        <time>2022-06-02T12:41:20.496Z</time>
      </trkpt>
      <trkpt lat="43.65819" lon="3.83013">
        <ele>90.2</ele>
        <time>2022-06-02T12:41:21.586Z</time>
      </trkpt>
      <trkpt lat="43.65801" lon="3.83031">
        <ele>89.8</ele>
        <time>2022-06-02T12:41:25.649Z</time>
      </trkpt>
      <trkpt lat="43.65785" lon="3.83048">
        <ele>89.6</ele>
        <time>2022-06-02T12:41:29.737Z</time>
      </trkpt>
      <trkpt lat="43.65782" lon="3.8304">
        <ele>89.9</ele>
        <time>2022-06-02T12:41:33.543Z</time>
      </trkpt>
      <trkpt lat="43.65762" lon="3.82986">
        <ele>91</ele>
        <time>2022-06-02T12:41:53.060Z</time>
      </trkpt>
      <trkpt lat="43.65742" lon="3.82932">
        <ele>91.7</ele>
        <time>2022-06-02T12:42:10.670Z</time>
      </trkpt>
      <trkpt lat="43.65655" lon="3.82891">
        <ele>101.8</ele>
        <time>2022-06-02T12:43:41.288Z</time>
      </trkpt>
      <trkpt lat="43.65607" lon="3.82869">
        <ele>107.8</ele>
        <time>2022-06-02T12:44:36.348Z</time>
      </trkpt>
      <trkpt lat="43.65599" lon="3.82848">
        <ele>108.8</ele>
        <time>2022-06-02T12:44:47.221Z</time>
      </trkpt>
      <trkpt lat="43.6559" lon="3.82826">
        <ele>108.6</ele>
        <time>2022-06-02T12:44:50.875Z</time>
      </trkpt>
      <trkpt lat="43.65573" lon="3.82811">
        <ele>109</ele>
        <time>2022-06-02T12:44:59.319Z</time>
      </trkpt>
      <trkpt lat="43.65556" lon="3.82796">
        <ele>109.9</ele>
        <time>2022-06-02T12:45:10.990Z</time>
      </trkpt>
      <trkpt lat="43.65537" lon="3.82766">
        <ele>110.1</ele>
        <time>2022-06-02T12:45:21.544Z</time>
      </trkpt>
      <trkpt lat="43.65518" lon="3.82736">
        <ele>110.4</ele>
        <time>2022-06-02T12:45:32.467Z</time>
      </trkpt>
      <trkpt lat="43.65511" lon="3.82717">
        <ele>108.9</ele>
        <time>2022-06-02T12:45:34.411Z</time>
      </trkpt>
      <trkpt lat="43.65504" lon="3.82698">
        <ele>107.8</ele>
        <time>2022-06-02T12:45:36.355Z</time>
      </trkpt>
      <trkpt lat="43.65494" lon="3.82687">
        <ele>108.1</ele>
        <time>2022-06-02T12:45:41.932Z</time>
      </trkpt>
      <trkpt lat="43.65484" lon="3.82677">
        <ele>107.9</ele>
        <time>2022-06-02T12:45:44.240Z</time>
      </trkpt>
      <trkpt lat="43.6546" lon="3.82652">
        <ele>105.4</ele>
        <time>2022-06-02T12:45:48.027Z</time>
      </trkpt>
      <trkpt lat="43.65435" lon="3.82627">
        <ele>104.2</ele>
        <time>2022-06-02T12:45:52.538Z</time>
      </trkpt>
      <trkpt lat="43.65406" lon="3.82612">
        <ele>103.5</ele>
        <time>2022-06-02T12:45:57.905Z</time>
      </trkpt>
      <trkpt lat="43.65377" lon="3.82598">
        <ele>102.2</ele>
        <time>2022-06-02T12:46:02.253Z</time>
      </trkpt>
      <trkpt lat="43.65353" lon="3.82583">
        <ele>101.8</ele>
        <time>2022-06-02T12:46:07.239Z</time>
      </trkpt>
      <trkpt lat="43.6533" lon="3.82569">
        <ele>102.9</ele>
        <time>2022-06-02T12:46:21.612Z</time>
      </trkpt>
      <trkpt lat="43.65308" lon="3.82561">
        <ele>105.1</ele>
        <time>2022-06-02T12:46:41.249Z</time>
      </trkpt>
      <trkpt lat="43.65287" lon="3.82554">
        <ele>106.2</ele>
        <time>2022-06-02T12:46:54.269Z</time>
      </trkpt>
      <trkpt lat="43.65265" lon="3.82544">
        <ele>107.2</ele>
        <time>2022-06-02T12:47:07.395Z</time>
      </trkpt>
      <trkpt lat="43.65244" lon="3.82533">
        <ele>107.9</ele>
        <time>2022-06-02T12:47:18.164Z</time>
      </trkpt>
      <trkpt lat="43.65206" lon="3.82523">
        <ele>112.3</ele>
        <time>2022-06-02T12:47:57.958Z</time>
      </trkpt>
      <trkpt lat="43.65168" lon="3.82513">
        <ele>117.3</ele>
        <time>2022-06-02T12:48:46.166Z</time>
      </trkpt>
      <trkpt lat="43.65161" lon="3.82501">
        <ele>117.4</ele>
        <time>2022-06-02T12:48:50.328Z</time>
      </trkpt>
      <trkpt lat="43.65155" lon="3.82488">
        <ele>117.8</ele>
        <time>2022-06-02T12:48:56.020Z</time>
      </trkpt>
      <trkpt lat="43.65157" lon="3.82461">
        <ele>118.1</ele>
        <time>2022-06-02T12:49:03.843Z</time>
      </trkpt>
      <trkpt lat="43.65159" lon="3.82433">
        <ele>118.7</ele>
        <time>2022-06-02T12:49:13.396Z</time>
      </trkpt>
      <trkpt lat="43.65149" lon="3.82407">
        <ele>119.8</ele>
        <time>2022-06-02T12:49:26.297Z</time>
      </trkpt>
      <trkpt lat="43.65138" lon="3.82381">
        <ele>120.2</ele>
        <time>2022-06-02T12:49:35.272Z</time>
      </trkpt>
      <trkpt lat="43.65123" lon="3.82366">
        <ele>119.5</ele>
        <time>2022-06-02T12:49:38.008Z</time>
      </trkpt>
      <trkpt lat="43.65108" lon="3.82352">
        <ele>118.6</ele>
        <time>2022-06-02T12:49:40.405Z</time>
      </trkpt>
      <trkpt lat="43.65097" lon="3.82353">
        <ele>118.3</ele>
        <time>2022-06-02T12:49:42.221Z</time>
      </trkpt>
      <trkpt lat="43.65086" lon="3.82354">
        <ele>118.1</ele>
        <time>2022-06-02T12:49:44.233Z</time>
      </trkpt>
      <trkpt lat="43.65079" lon="3.82363">
        <ele>118.5</ele>
        <time>2022-06-02T12:49:49.544Z</time>
      </trkpt>
      <trkpt lat="43.65072" lon="3.82371">
        <ele>118.1</ele>
        <time>2022-06-02T12:49:50.810Z</time>
      </trkpt>
      <trkpt lat="43.65069" lon="3.82386">
        <ele>118.7</ele>
        <time>2022-06-02T12:49:57.704Z</time>
      </trkpt>
      <trkpt lat="43.65065" lon="3.82402">
        <ele>119.1</ele>
        <time>2022-06-02T12:50:03.691Z</time>
      </trkpt>
      <trkpt lat="43.64975" lon="3.82426">
        <ele>112.6</ele>
        <time>2022-06-02T12:50:15.241Z</time>
      </trkpt>
      <trkpt lat="43.64965" lon="3.82428">
        <ele>111.3</ele>
        <time>2022-06-02T12:50:16.514Z</time>
      </trkpt>
      <trkpt lat="43.64942" lon="3.82444">
        <ele>109.9</ele>
        <time>2022-06-02T12:50:19.792Z</time>
      </trkpt>
      <trkpt lat="43.64918" lon="3.82459">
        <ele>109.6</ele>
        <time>2022-06-02T12:50:25.025Z</time>
      </trkpt>
      <trkpt lat="43.64911" lon="3.82459">
        <ele>109.5</ele>
        <time>2022-06-02T12:50:26.365Z</time>
      </trkpt>
      <trkpt lat="43.64903" lon="3.82459">
        <ele>109.5</ele>
        <time>2022-06-02T12:50:29.106Z</time>
      </trkpt>
      <trkpt lat="43.64883" lon="3.82462">
        <ele>109.3</ele>
        <time>2022-06-02T12:50:33.179Z</time>
      </trkpt>
      <trkpt lat="43.64864" lon="3.82464">
        <ele>108.2</ele>
        <time>2022-06-02T12:50:35.539Z</time>
      </trkpt>
      <trkpt lat="43.64845" lon="3.82457">
        <ele>107.1</ele>
        <time>2022-06-02T12:50:38.009Z</time>
      </trkpt>
      <trkpt lat="43.64826" lon="3.82451">
        <ele>106</ele>
        <time>2022-06-02T12:50:40.448Z</time>
      </trkpt>
      <trkpt lat="43.64805" lon="3.82441">
        <ele>105</ele>
        <time>2022-06-02T12:50:43.515Z</time>
      </trkpt>
      <trkpt lat="43.64785" lon="3.8243">
        <ele>103.9</ele>
        <time>2022-06-02T12:50:46.332Z</time>
      </trkpt>
      <trkpt lat="43.64758" lon="3.8243">
        <ele>102.8</ele>
        <time>2022-06-02T12:50:50.211Z</time>
      </trkpt>
      <trkpt lat="43.64732" lon="3.8243">
        <ele>101.8</ele>
        <time>2022-06-02T12:50:54.029Z</time>
      </trkpt>
      <trkpt lat="43.64699" lon="3.82414">
        <ele>101</ele>
        <time>2022-06-02T12:51:00.071Z</time>
      </trkpt>
      <trkpt lat="43.64667" lon="3.82398">
        <ele>100.3</ele>
        <time>2022-06-02T12:51:06.109Z</time>
      </trkpt>
      <trkpt lat="43.64587" lon="3.82335">
        <ele>100</ele>
        <time>2022-06-02T12:51:36.155Z</time>
      </trkpt>
      <trkpt lat="43.64582" lon="3.82331">
        <ele>100.2</ele>
        <time>2022-06-02T12:51:39.054Z</time>
      </trkpt>
      <trkpt lat="43.64568" lon="3.82321">
        <ele>100.9</ele>
        <time>2022-06-02T12:51:48.156Z</time>
      </trkpt>
      <trkpt lat="43.64554" lon="3.82312">
        <ele>101.5</ele>
        <time>2022-06-02T12:51:56.370Z</time>
      </trkpt>
      <trkpt lat="43.64529" lon="3.82307">
        <ele>101</ele>
        <time>2022-06-02T12:52:00.892Z</time>
      </trkpt>
      <trkpt lat="43.64504" lon="3.82302">
        <ele>100</ele>
        <time>2022-06-02T12:52:04.561Z</time>
      </trkpt>
      <trkpt lat="43.64499" lon="3.82296">
        <ele>99.3</ele>
        <time>2022-06-02T12:52:05.396Z</time>
      </trkpt>
      <trkpt lat="43.64495" lon="3.82291">
        <ele>98.8</ele>
        <time>2022-06-02T12:52:06.075Z</time>
      </trkpt>
      <trkpt lat="43.64489" lon="3.82287">
        <ele>98.4</ele>
        <time>2022-06-02T12:52:06.885Z</time>
      </trkpt>
      <trkpt lat="43.64483" lon="3.82282">
        <ele>98.1</ele>
        <time>2022-06-02T12:52:07.872Z</time>
      </trkpt>
      <trkpt lat="43.64476" lon="3.82287">
        <ele>98.1</ele>
        <time>2022-06-02T12:52:10.572Z</time>
      </trkpt>
      <trkpt lat="43.64469" lon="3.82291">
        <ele>98.1</ele>
        <time>2022-06-02T12:52:13.167Z</time>
      </trkpt>
      <trkpt lat="43.64464" lon="3.82283">
        <ele>98.1</ele>
        <time>2022-06-02T12:52:15.788Z</time>
      </trkpt>
      <trkpt lat="43.64459" lon="3.82275">
        <ele>98</ele>
        <time>2022-06-02T12:52:17.275Z</time>
      </trkpt>
      <trkpt lat="43.64435" lon="3.82257">
        <ele>98.2</ele>
        <time>2022-06-02T12:52:26.878Z</time>
      </trkpt>
      <trkpt lat="43.64415" lon="3.82228">
        <ele>98</ele>
        <time>2022-06-02T12:52:36.329Z</time>
      </trkpt>
      <trkpt lat="43.64412" lon="3.82233">
        <ele>98</ele>
        <time>2022-06-02T12:52:40.374Z</time>
      </trkpt>
      <trkpt lat="43.64411" lon="3.82239">
        <ele>98</ele>
        <time>2022-06-02T12:52:44.195Z</time>
      </trkpt>
      <trkpt lat="43.64406" lon="3.82249">
        <ele>98</ele>
        <time>2022-06-02T12:52:57.331Z</time>
      </trkpt>
      <trkpt lat="43.64395" lon="3.82254">
        <ele>98.1</ele>
        <time>2022-06-02T12:53:14.419Z</time>
      </trkpt>
      <trkpt lat="43.64379" lon="3.8226">
        <ele>98</ele>
        <time>2022-06-02T12:53:18.638Z</time>
      </trkpt>
      <trkpt lat="43.64365" lon="3.8225">
        <ele>98</ele>
        <time>2022-06-02T12:53:22.858Z</time>
      </trkpt>
      <trkpt lat="43.64295" lon="3.82387">
        <ele>96.8</ele>
      </trkpt>
      <trkpt lat="43.64194" lon="3.82592">
        <ele>92.1</ele>
      </trkpt>
      <trkpt lat="43.641" lon="3.82706">
        <ele>87.2</ele>
      </trkpt>
      <trkpt lat="43.64033" lon="3.82766">
        <ele>83.9</ele>
      </trkpt>
      <trkpt lat="43.6402" lon="3.8277">
        <ele>83.8</ele>
      </trkpt>
      <trkpt lat="43.64013" lon="3.82785">
        <ele>83</ele>
      </trkpt>
      <trkpt lat="43.64006" lon="3.82793">
        <ele>82.4</ele>
      </trkpt>
      <trkpt lat="43.63918" lon="3.82835">
        <ele>78</ele>
      </trkpt>
      <trkpt lat="43.63867" lon="3.82728">
        <ele>80.9</ele>
      </trkpt>
      <trkpt lat="43.63628" lon="3.82763">
        <ele>78.9</ele>
      </trkpt>
      <trkpt lat="43.6357" lon="3.82516">
        <ele>90.3</ele>
      </trkpt>
      <trkpt lat="43.63359" lon="3.82565">
        <ele>79.3</ele>
      </trkpt>
      <trkpt lat="43.63234" lon="3.82677">
        <ele>81.4</ele>
      </trkpt>
      <trkpt lat="43.63173" lon="3.82798">
        <ele>80.8</ele>
      </trkpt>
      <trkpt lat="43.63128" lon="3.82879">
        <ele>72.2</ele>
      </trkpt>
      <trkpt lat="43.63106" lon="3.82923">
        <ele>73.9</ele>
      </trkpt>
      <trkpt lat="43.6308" lon="3.82972">
        <ele>79.2</ele>
      </trkpt>
      <trkpt lat="43.63063" lon="3.82992">
        <ele>80.5</ele>
      </trkpt>
      <trkpt lat="43.63021" lon="3.82948">
        <ele>78</ele>
      </trkpt>
      <trkpt lat="43.62954" lon="3.82976">
        <ele>77.6</ele>
      </trkpt>
      <trkpt lat="43.62889" lon="3.82949">
        <ele>73.4</ele>
      </trkpt>
      <trkpt lat="43.62899" lon="3.83096">
        <ele>82.8</ele>
      </trkpt>
      <trkpt lat="43.62836" lon="3.83088">
        <ele>84.1</ele>
      </trkpt>
      <trkpt lat="43.62767" lon="3.831">
        <ele>85.6</ele>
      </trkpt>
      <trkpt lat="43.62701" lon="3.83138">
        <ele>84.2</ele>
      </trkpt>
      <trkpt lat="43.62553" lon="3.83237">
        <ele>77.8</ele>
      </trkpt>
      <trkpt lat="43.62512" lon="3.83466">
        <ele>75.4</ele>
      </trkpt>
    </trkseg>
  </trk>
</gpx>